sensor_id;sensor_type;location;lat;lon;timestamp;P1;P2;P0
47741;PMS5003;33504;52.066;6.096;2023-03-05T00:01:46;5;4;
47741;PMS5003;33504;52.066;6.096;2023-03-05T00:04:13;5;4;
47741;PMS5003;33504;52.066;6.096;2023-03-05T00:06:40;6;5;
47741;PMS5003;33504;52.066;6.096;2023-03-05T00:09:07;5;5;
47741;PMS5003;33504;52.066;6.096;2023-03-05T00:11:34;3;3;
47741;PMS5003;33504;52.066;6.096;2023-03-05T00:14:02;3;3;
47741;PMS5003;33504;52.066;6.096;2023-03-05T00:16:29;5;4;
47741;PMS5003;33504;52.066;6.096;2023-03-05T00:18:58;4;4;
47741;PMS5003;33504;52.066;6.096;2023-03-05T00:21:26;4;3;
47741;PMS5003;33504;52.066;6.096;2023-03-05T00:23:56;5;5;
47741;PMS5003;33504;52.066;6.096;2023-03-05T00:26:24;6;6;
47741;PMS5003;33504;52.066;6.096;2023-03-05T00:28:52;3;2;
47741;PMS5003;33504;52.066;6.096;2023-03-05T00:31:21;3;2;
47741;PMS5003;33504;52.066;6.096;2023-03-05T00:33:51;3;2;
47741;PMS5003;33504;52.066;6.096;2023-03-05T00:36:19;4;3;
47741;PMS5003;33504;52.066;6.096;2023-03-05T00:38:46;4;3;
47741;PMS5003;33504;52.066;6.096;2023-03-05T00:41:13;3;3;
47741;PMS5003;33504;52.066;6.096;2023-03-05T00:43:40;2;2;
47741;PMS5003;33504;52.066;6.096;2023-03-05T00:46:07;5;4;
47741;PMS5003;33504;52.066;6.096;2023-03-05T00:48:34;3;2;
47741;PMS5003;33504;52.066;6.096;2023-03-05T00:51:01;6;5;
47741;PMS5003;33504;52.066;6.096;2023-03-05T00:53:29;4;3;
47741;PMS5003;33504;52.066;6.096;2023-03-05T00:55:57;4;3;
47741;PMS5003;33504;52.066;6.096;2023-03-05T00:58:24;5;5;
47741;PMS5003;33504;52.066;6.096;2023-03-05T01:00:51;5;3;
47741;PMS5003;33504;52.066;6.096;2023-03-05T01:03:18;2;2;
47741;PMS5003;33504;52.066;6.096;2023-03-05T01:05:45;4;4;
47741;PMS5003;33504;52.066;6.096;2023-03-05T01:08:12;4;4;
47741;PMS5003;33504;52.066;6.096;2023-03-05T01:10:39;4;4;
47741;PMS5003;33504;52.066;6.096;2023-03-05T01:13:06;3;3;
47741;PMS5003;33504;52.066;6.096;2023-03-05T01:15:32;5;4;
47741;PMS5003;33504;52.066;6.096;2023-03-05T01:18:00;3;3;
47741;PMS5003;33504;52.066;6.096;2023-03-05T01:20:27;4;4;
47741;PMS5003;33504;52.066;6.096;2023-03-05T01:22:54;3;3;
47741;PMS5003;33504;52.066;6.096;2023-03-05T01:25:21;3;2;
47741;PMS5003;33504;52.066;6.096;2023-03-05T01:27:48;5;4;
47741;PMS5003;33504;52.066;6.096;2023-03-05T01:30:15;6;4;
47741;PMS5003;33504;52.066;6.096;2023-03-05T01:32:43;5;4;
47741;PMS5003;33504;52.066;6.096;2023-03-05T01:35:11;3;2;
47741;PMS5003;33504;52.066;6.096;2023-03-05T01:37:42;3;2;
47741;PMS5003;33504;52.066;6.096;2023-03-05T01:40:11;3;2;
47741;PMS5003;33504;52.066;6.096;2023-03-05T01:42:43;3;3;
47741;PMS5003;33504;52.066;6.096;2023-03-05T01:45:12;3;2;
47741;PMS5003;33504;52.066;6.096;2023-03-05T01:47:43;3;2;
47741;PMS5003;33504;52.066;6.096;2023-03-05T01:50:12;3;2;
47741;PMS5003;33504;52.066;6.096;2023-03-05T01:52:44;4;4;
47741;PMS5003;33504;52.066;6.096;2023-03-05T01:55:15;5;4;
47741;PMS5003;33504;52.066;6.096;2023-03-05T01:57:44;3;3;
47741;PMS5003;33504;52.066;6.096;2023-03-05T02:00:15;4;4;
47741;PMS5003;33504;52.066;6.096;2023-03-05T02:02:46;6;5;
47741;PMS5003;33504;52.066;6.096;2023-03-05T02:05:17;4;4;
47741;PMS5003;33504;52.066;6.096;2023-03-05T02:07:45;4;4;
47741;PMS5003;33504;52.066;6.096;2023-03-05T02:10:14;5;4;
47741;PMS5003;33504;52.066;6.096;2023-03-05T02:12:42;5;4;
47741;PMS5003;33504;52.066;6.096;2023-03-05T02:15:09;6;6;
47741;PMS5003;33504;52.066;6.096;2023-03-05T02:17:38;7;6;
47741;PMS5003;33504;52.066;6.096;2023-03-05T02:20:06;5;4;
47741;PMS5003;33504;52.066;6.096;2023-03-05T02:22:35;7;6;
47741;PMS5003;33504;52.066;6.096;2023-03-05T02:25:11;5;4;
47741;PMS5003;33504;52.066;6.096;2023-03-05T02:27:39;6;5;
47741;PMS5003;33504;52.066;6.096;2023-03-05T02:30:10;6;5;
47741;PMS5003;33504;52.066;6.096;2023-03-05T02:32:37;5;5;
47741;PMS5003;33504;52.066;6.096;2023-03-05T02:35:05;5;5;
47741;PMS5003;33504;52.066;6.096;2023-03-05T02:37:32;9;6;
47741;PMS5003;33504;52.066;6.096;2023-03-05T02:39:59;7;7;
47741;PMS5003;33504;52.066;6.096;2023-03-05T02:42:26;5;5;
47741;PMS5003;33504;52.066;6.096;2023-03-05T02:44:53;5;4;
47741;PMS5003;33504;52.066;6.096;2023-03-05T02:47:20;5;5;
47741;PMS5003;33504;52.066;6.096;2023-03-05T02:49:47;5;4;
47741;PMS5003;33504;52.066;6.096;2023-03-05T02:52:14;6;6;
47741;PMS5003;33504;52.066;6.096;2023-03-05T02:54:41;8;8;
47741;PMS5003;33504;52.066;6.096;2023-03-05T02:57:08;8;8;
47741;PMS5003;33504;52.066;6.096;2023-03-05T02:59:35;9;8;
47741;PMS5003;33504;52.066;6.096;2023-03-05T03:02:02;8;6;
47741;PMS5003;33504;52.066;6.096;2023-03-05T03:04:29;7;5;
47741;PMS5003;33504;52.066;6.096;2023-03-05T03:06:57;11;8;
47741;PMS5003;33504;52.066;6.096;2023-03-05T03:09:23;6;4;
47741;PMS5003;33504;52.066;6.096;2023-03-05T03:11:50;11;9;
47741;PMS5003;33504;52.066;6.096;2023-03-05T03:14:17;6;5;
47741;PMS5003;33504;52.066;6.096;2023-03-05T03:16:44;7;5;
47741;PMS5003;33504;52.066;6.096;2023-03-05T03:19:11;7;6;
47741;PMS5003;33504;52.066;6.096;2023-03-05T03:21:39;10;9;
47741;PMS5003;33504;52.066;6.096;2023-03-05T03:24:06;8;7;
47741;PMS5003;33504;52.066;6.096;2023-03-05T03:26:32;9;8;
47741;PMS5003;33504;52.066;6.096;2023-03-05T03:28:59;6;6;
47741;PMS5003;33504;52.066;6.096;2023-03-05T03:31:27;7;5;
47741;PMS5003;33504;52.066;6.096;2023-03-05T03:33:54;5;5;
47741;PMS5003;33504;52.066;6.096;2023-03-05T03:36:21;6;6;
47741;PMS5003;33504;52.066;6.096;2023-03-05T03:38:48;5;5;
47741;PMS5003;33504;52.066;6.096;2023-03-05T03:41:15;6;5;
47741;PMS5003;33504;52.066;6.096;2023-03-05T03:43:42;8;7;
47741;PMS5003;33504;52.066;6.096;2023-03-05T03:46:09;7;6;
47741;PMS5003;33504;52.066;6.096;2023-03-05T03:48:36;5;5;
47741;PMS5003;33504;52.066;6.096;2023-03-05T03:51:04;9;8;
47741;PMS5003;33504;52.066;6.096;2023-03-05T03:53:32;7;6;
47741;PMS5003;33504;52.066;6.096;2023-03-05T03:55:58;8;7;
47741;PMS5003;33504;52.066;6.096;2023-03-05T03:58:25;6;6;
47741;PMS5003;33504;52.066;6.096;2023-03-05T04:00:52;10;8;
47741;PMS5003;33504;52.066;6.096;2023-03-05T04:03:19;6;5;
47741;PMS5003;33504;52.066;6.096;2023-03-05T04:05:46;9;8;
47741;PMS5003;33504;52.066;6.096;2023-03-05T04:08:13;10;9;
47741;PMS5003;33504;52.066;6.096;2023-03-05T04:10:40;7;7;
47741;PMS5003;33504;52.066;6.096;2023-03-05T04:13:07;8;7;
47741;PMS5003;33504;52.066;6.096;2023-03-05T04:15:35;7;6;
47741;PMS5003;33504;52.066;6.096;2023-03-05T04:18:02;7;7;
47741;PMS5003;33504;52.066;6.096;2023-03-05T04:20:29;9;7;
47741;PMS5003;33504;52.066;6.096;2023-03-05T04:22:56;9;7;
47741;PMS5003;33504;52.066;6.096;2023-03-05T04:25:22;7;7;
47741;PMS5003;33504;52.066;6.096;2023-03-05T04:27:49;8;8;
47741;PMS5003;33504;52.066;6.096;2023-03-05T04:30:16;7;6;
47741;PMS5003;33504;52.066;6.096;2023-03-05T04:32:43;9;9;
47741;PMS5003;33504;52.066;6.096;2023-03-05T04:35:10;8;7;
47741;PMS5003;33504;52.066;6.096;2023-03-05T04:37:37;11;8;
47741;PMS5003;33504;52.066;6.096;2023-03-05T04:40:05;9;8;
47741;PMS5003;33504;52.066;6.096;2023-03-05T04:42:33;9;8;
47741;PMS5003;33504;52.066;6.096;2023-03-05T04:45:00;8;8;
47741;PMS5003;33504;52.066;6.096;2023-03-05T04:47:26;10;9;
47741;PMS5003;33504;52.066;6.096;2023-03-05T04:49:53;9;9;
47741;PMS5003;33504;52.066;6.096;2023-03-05T04:52:20;9;8;
47741;PMS5003;33504;52.066;6.096;2023-03-05T04:54:47;13;12;
47741;PMS5003;33504;52.066;6.096;2023-03-05T04:57:14;9;9;
47741;PMS5003;33504;52.066;6.096;2023-03-05T04:59:41;14;13;
47741;PMS5003;33504;52.066;6.096;2023-03-05T05:02:08;12;12;
47741;PMS5003;33504;52.066;6.096;2023-03-05T05:04:35;14;13;
47741;PMS5003;33504;52.066;6.096;2023-03-05T05:07:02;12;11;
47741;PMS5003;33504;52.066;6.096;2023-03-05T05:09:29;12;10;
47741;PMS5003;33504;52.066;6.096;2023-03-05T05:11:56;12;10;
47741;PMS5003;33504;52.066;6.096;2023-03-05T05:14:23;13;11;
47741;PMS5003;33504;52.066;6.096;2023-03-05T05:16:50;11;11;
47741;PMS5003;33504;52.066;6.096;2023-03-05T05:19:17;11;11;
47741;PMS5003;33504;52.066;6.096;2023-03-05T05:21:44;12;11;
47741;PMS5003;33504;52.066;6.096;2023-03-05T05:24:12;11;11;
47741;PMS5003;33504;52.066;6.096;2023-03-05T05:26:39;11;11;
47741;PMS5003;33504;52.066;6.096;2023-03-05T05:29:05;11;10;
47741;PMS5003;33504;52.066;6.096;2023-03-05T05:31:32;11;11;
47741;PMS5003;33504;52.066;6.096;2023-03-05T05:33:59;16;15;
47741;PMS5003;33504;52.066;6.096;2023-03-05T05:36:26;11;11;
47741;PMS5003;33504;52.066;6.096;2023-03-05T05:38:53;17;16;
47741;PMS5003;33504;52.066;6.096;2023-03-05T05:41:21;12;9;
47741;PMS5003;33504;52.066;6.096;2023-03-05T05:43:48;15;13;
47741;PMS5003;33504;52.066;6.096;2023-03-05T05:46:17;14;14;
47741;PMS5003;33504;52.066;6.096;2023-03-05T05:48:44;12;12;
47741;PMS5003;33504;52.066;6.096;2023-03-05T05:51:14;17;14;
47741;PMS5003;33504;52.066;6.096;2023-03-05T05:53:42;15;13;
47741;PMS5003;33504;52.066;6.096;2023-03-05T05:56:10;13;13;
47741;PMS5003;33504;52.066;6.096;2023-03-05T05:58:39;13;13;
47741;PMS5003;33504;52.066;6.096;2023-03-05T06:01:15;13;12;
47741;PMS5003;33504;52.066;6.096;2023-03-05T06:03:43;14;14;
47741;PMS5003;33504;52.066;6.096;2023-03-05T06:06:11;16;12;
47741;PMS5003;33504;52.066;6.096;2023-03-05T06:08:40;12;12;
47741;PMS5003;33504;52.066;6.096;2023-03-05T06:11:07;11;11;
47741;PMS5003;33504;52.066;6.096;2023-03-05T06:13:35;15;14;
47741;PMS5003;33504;52.066;6.096;2023-03-05T06:16:02;12;12;
47741;PMS5003;33504;52.066;6.096;2023-03-05T06:18:31;13;12;
47741;PMS5003;33504;52.066;6.096;2023-03-05T06:21:00;11;11;
47741;PMS5003;33504;52.066;6.096;2023-03-05T06:23:29;16;12;
47741;PMS5003;33504;52.066;6.096;2023-03-05T06:25:57;13;12;
47741;PMS5003;33504;52.066;6.096;2023-03-05T06:28:25;14;13;
47741;PMS5003;33504;52.066;6.096;2023-03-05T06:30:58;16;15;
47741;PMS5003;33504;52.066;6.096;2023-03-05T06:33:26;12;12;
47741;PMS5003;33504;52.066;6.096;2023-03-05T06:35:53;12;12;
47741;PMS5003;33504;52.066;6.096;2023-03-05T06:38:21;16;13;
47741;PMS5003;33504;52.066;6.096;2023-03-05T06:40:48;13;12;
47741;PMS5003;33504;52.066;6.096;2023-03-05T06:43:15;12;12;
47741;PMS5003;33504;52.066;6.096;2023-03-05T06:45:42;12;10;
47741;PMS5003;33504;52.066;6.096;2023-03-05T06:48:09;13;12;
47741;PMS5003;33504;52.066;6.096;2023-03-05T06:50:36;13;12;
47741;PMS5003;33504;52.066;6.096;2023-03-05T06:53:03;14;11;
47741;PMS5003;33504;52.066;6.096;2023-03-05T06:55:30;12;12;
47741;PMS5003;33504;52.066;6.096;2023-03-05T06:57:57;14;13;
47741;PMS5003;33504;52.066;6.096;2023-03-05T07:00:24;12;11;
47741;PMS5003;33504;52.066;6.096;2023-03-05T07:02:51;11;11;
47741;PMS5003;33504;52.066;6.096;2023-03-05T07:05:18;13;12;
47741;PMS5003;33504;52.066;6.096;2023-03-05T07:07:45;13;13;
47741;PMS5003;33504;52.066;6.096;2023-03-05T07:10:12;12;11;
47741;PMS5003;33504;52.066;6.096;2023-03-05T07:12:39;9;9;
47741;PMS5003;33504;52.066;6.096;2023-03-05T07:15:07;10;9;
47741;PMS5003;33504;52.066;6.096;2023-03-05T07:17:34;12;10;
47741;PMS5003;33504;52.066;6.096;2023-03-05T07:20:01;10;9;
47741;PMS5003;33504;52.066;6.096;2023-03-05T07:22:28;7;7;
47741;PMS5003;33504;52.066;6.096;2023-03-05T07:24:55;9;9;
47741;PMS5003;33504;52.066;6.096;2023-03-05T07:27:22;10;9;
47741;PMS5003;33504;52.066;6.096;2023-03-05T07:29:49;11;10;
47741;PMS5003;33504;52.066;6.096;2023-03-05T07:32:16;9;9;
47741;PMS5003;33504;52.066;6.096;2023-03-05T07:34:43;8;8;
47741;PMS5003;33504;52.066;6.096;2023-03-05T07:37:10;10;9;
47741;PMS5003;33504;52.066;6.096;2023-03-05T07:39:38;10;10;
47741;PMS5003;33504;52.066;6.096;2023-03-05T07:42:05;6;6;
47741;PMS5003;33504;52.066;6.096;2023-03-05T07:44:32;10;8;
47741;PMS5003;33504;52.066;6.096;2023-03-05T07:46:59;9;8;
47741;PMS5003;33504;52.066;6.096;2023-03-05T07:49:26;11;10;
47741;PMS5003;33504;52.066;6.096;2023-03-05T07:51:53;10;10;
47741;PMS5003;33504;52.066;6.096;2023-03-05T07:54:20;12;10;
47741;PMS5003;33504;52.066;6.096;2023-03-05T07:56:47;8;8;
47741;PMS5003;33504;52.066;6.096;2023-03-05T07:59:14;8;8;
47741;PMS5003;33504;52.066;6.096;2023-03-05T08:01:41;9;9;
47741;PMS5003;33504;52.066;6.096;2023-03-05T08:04:08;8;7;
47741;PMS5003;33504;52.066;6.096;2023-03-05T08:06:37;8;7;
47741;PMS5003;33504;52.066;6.096;2023-03-05T08:09:05;12;10;
47741;PMS5003;33504;52.066;6.096;2023-03-05T08:11:32;9;9;
47741;PMS5003;33504;52.066;6.096;2023-03-05T08:13:59;9;8;
47741;PMS5003;33504;52.066;6.096;2023-03-05T08:16:26;8;8;
47741;PMS5003;33504;52.066;6.096;2023-03-05T08:18:54;7;7;
47741;PMS5003;33504;52.066;6.096;2023-03-05T08:21:23;11;10;
47741;PMS5003;33504;52.066;6.096;2023-03-05T08:23:51;8;7;
47741;PMS5003;33504;52.066;6.096;2023-03-05T08:26:19;7;7;
47741;PMS5003;33504;52.066;6.096;2023-03-05T08:28:49;8;7;
47741;PMS5003;33504;52.066;6.096;2023-03-05T08:31:18;6;6;
47741;PMS5003;33504;52.066;6.096;2023-03-05T08:33:47;9;9;
47741;PMS5003;33504;52.066;6.096;2023-03-05T08:36:15;9;9;
47741;PMS5003;33504;52.066;6.096;2023-03-05T08:38:42;10;9;
47741;PMS5003;33504;52.066;6.096;2023-03-05T08:41:09;11;9;
47741;PMS5003;33504;52.066;6.096;2023-03-05T08:43:36;9;8;
47741;PMS5003;33504;52.066;6.096;2023-03-05T08:46:03;9;9;
47741;PMS5003;33504;52.066;6.096;2023-03-05T08:48:31;6;5;
47741;PMS5003;33504;52.066;6.096;2023-03-05T08:51:03;7;7;
47741;PMS5003;33504;52.066;6.096;2023-03-05T08:53:31;5;4;
47741;PMS5003;33504;52.066;6.096;2023-03-05T08:55:58;5;5;
47741;PMS5003;33504;52.066;6.096;2023-03-05T08:58:24;6;4;
47741;PMS5003;33504;52.066;6.096;2023-03-05T09:00:52;3;3;
47741;PMS5003;33504;52.066;6.096;2023-03-05T09:03:19;3;3;
47741;PMS5003;33504;52.066;6.096;2023-03-05T09:05:46;4;4;
47741;PMS5003;33504;52.066;6.096;2023-03-05T09:08:13;4;4;
47741;PMS5003;33504;52.066;6.096;2023-03-05T09:10:40;4;4;
47741;PMS5003;33504;52.066;6.096;2023-03-05T09:13:06;7;7;
47741;PMS5003;33504;52.066;6.096;2023-03-05T09:15:33;3;3;
47741;PMS5003;33504;52.066;6.096;2023-03-05T09:18:00;5;5;
47741;PMS5003;33504;52.066;6.096;2023-03-05T09:20:27;3;3;
47741;PMS5003;33504;52.066;6.096;2023-03-05T09:22:54;3;3;
47741;PMS5003;33504;52.066;6.096;2023-03-05T09:25:21;3;3;
47741;PMS5003;33504;52.066;6.096;2023-03-05T09:27:48;6;5;
47741;PMS5003;33504;52.066;6.096;2023-03-05T09:30:19;4;4;
47741;PMS5003;33504;52.066;6.096;2023-03-05T09:32:47;3;3;
47741;PMS5003;33504;52.066;6.096;2023-03-05T09:35:14;4;4;
47741;PMS5003;33504;52.066;6.096;2023-03-05T09:37:42;3;3;
47741;PMS5003;33504;52.066;6.096;2023-03-05T09:40:11;3;3;
47741;PMS5003;33504;52.066;6.096;2023-03-05T09:42:44;2;2;
47741;PMS5003;33504;52.066;6.096;2023-03-05T09:45:25;3;3;
47741;PMS5003;33504;52.066;6.096;2023-03-05T09:47:55;2;2;
47741;PMS5003;33504;52.066;6.096;2023-03-05T09:50:35;4;4;
47741;PMS5003;33504;52.066;6.096;2023-03-05T09:53:07;3;3;
47741;PMS5003;33504;52.066;6.096;2023-03-05T09:55:44;2;2;
47741;PMS5003;33504;52.066;6.096;2023-03-05T09:58:13;3;3;
47741;PMS5003;33504;52.066;6.096;2023-03-05T10:00:44;1;1;
47741;PMS5003;33504;52.066;6.096;2023-03-05T10:03:15;2;2;
47741;PMS5003;33504;52.066;6.096;2023-03-05T10:05:51;2;2;
47741;PMS5003;33504;52.066;6.096;2023-03-05T10:08:30;2;2;
47741;PMS5003;33504;52.066;6.096;2023-03-05T10:11:06;1;1;
47741;PMS5003;33504;52.066;6.096;2023-03-05T10:13:48;3;3;
47741;PMS5003;33504;52.066;6.096;2023-03-05T10:16:23;1;1;
47741;PMS5003;33504;52.066;6.096;2023-03-05T10:19:06;3;2;
47741;PMS5003;33504;52.066;6.096;2023-03-05T10:21:39;3;3;
47741;PMS5003;33504;52.066;6.096;2023-03-05T10:24:15;4;3;
47741;PMS5003;33504;52.066;6.096;2023-03-05T10:26:53;2;1;
47741;PMS5003;33504;52.066;6.096;2023-03-05T10:29:33;3;3;
47741;PMS5003;33504;52.066;6.096;2023-03-05T10:32:11;1;1;
47741;PMS5003;33504;52.066;6.096;2023-03-05T10:34:53;2;1;
47741;PMS5003;33504;52.066;6.096;2023-03-05T10:38:15;2;2;
47741;PMS5003;33504;52.066;6.096;2023-03-05T10:40:54;1;1;
47741;PMS5003;33504;52.066;6.096;2023-03-05T10:43:23;3;3;
47741;PMS5003;33504;52.066;6.096;2023-03-05T10:45:56;3;2;
47741;PMS5003;33504;52.066;6.096;2023-03-05T10:48:28;3;3;
47741;PMS5003;33504;52.066;6.096;2023-03-05T10:51:03;1;1;
47741;PMS5003;33504;52.066;6.096;2023-03-05T10:53:43;1;0;
47741;PMS5003;33504;52.066;6.096;2023-03-05T10:56:20;2;1;
47741;PMS5003;33504;52.066;6.096;2023-03-05T10:58:49;0;0;
47741;PMS5003;33504;52.066;6.096;2023-03-05T11:01:19;1;1;
47741;PMS5003;33504;52.066;6.096;2023-03-05T11:03:49;1;1;
47741;PMS5003;33504;52.066;6.096;2023-03-05T11:06:36;1;1;
47741;PMS5003;33504;52.066;6.096;2023-03-05T11:09:20;2;1;
47741;PMS5003;33504;52.066;6.096;2023-03-05T11:12:23;2;2;
47741;PMS5003;33504;52.066;6.096;2023-03-05T11:15:01;3;3;
47741;PMS5003;33504;52.066;6.096;2023-03-05T11:17:31;3;3;
47741;PMS5003;33504;52.066;6.096;2023-03-05T11:20:22;1;1;
47741;PMS5003;33504;52.066;6.096;2023-03-05T11:23:00;1;1;
47741;PMS5003;33504;52.066;6.096;2023-03-05T11:25:29;0;0;
47741;PMS5003;33504;52.066;6.096;2023-03-05T11:27:59;0;0;
47741;PMS5003;33504;52.066;6.096;2023-03-05T11:30:28;1;1;
47741;PMS5003;33504;52.066;6.096;2023-03-05T11:33:06;1;0;
47741;PMS5003;33504;52.066;6.096;2023-03-05T11:35:35;1;1;
47741;PMS5003;33504;52.066;6.096;2023-03-05T11:38:05;0;0;
47741;PMS5003;33504;52.066;6.096;2023-03-05T11:40:40;3;2;
47741;PMS5003;33504;52.066;6.096;2023-03-05T11:43:08;1;1;
47741;PMS5003;33504;52.066;6.096;2023-03-05T11:45:41;1;1;
47741;PMS5003;33504;52.066;6.096;2023-03-05T11:48:11;4;3;
47741;PMS5003;33504;52.066;6.096;2023-03-05T11:50:43;2;1;
47741;PMS5003;33504;52.066;6.096;2023-03-05T11:53:16;1;1;
47741;PMS5003;33504;52.066;6.096;2023-03-05T11:55:48;5;5;
47741;PMS5003;33504;52.066;6.096;2023-03-05T11:58:23;4;4;
47741;PMS5003;33504;52.066;6.096;2023-03-05T12:00:54;4;4;
47741;PMS5003;33504;52.066;6.096;2023-03-05T12:03:24;33;32;
47741;PMS5003;33504;52.066;6.096;2023-03-05T12:05:57;33;32;
47741;PMS5003;33504;52.066;6.096;2023-03-05T12:08:30;29;28;
47741;PMS5003;33504;52.066;6.096;2023-03-05T12:11:02;80;79;
47741;PMS5003;33504;52.066;6.096;2023-03-05T12:13:33;39;36;
47741;PMS5003;33504;52.066;6.096;2023-03-05T12:16:05;6;5;
47741;PMS5003;33504;52.066;6.096;2023-03-05T12:18:44;39;36;
47741;PMS5003;33504;52.066;6.096;2023-03-05T12:21:24;47;42;
47741;PMS5003;33504;52.066;6.096;2023-03-05T12:24:00;3;3;
47741;PMS5003;33504;52.066;6.096;2023-03-05T12:26:53;15;15;
47741;PMS5003;33504;52.066;6.096;2023-03-05T12:29:37;3;2;
47741;PMS5003;33504;52.066;6.096;2023-03-05T12:35:22;1;1;
47741;PMS5003;33504;52.066;6.096;2023-03-05T12:38:31;0;0;
47741;PMS5003;33504;52.066;6.096;2023-03-05T12:41:31;0;0;
47741;PMS5003;33504;52.066;6.096;2023-03-05T12:44:32;2;2;
47741;PMS5003;33504;52.066;6.096;2023-03-05T12:47:17;1;1;
47741;PMS5003;33504;52.066;6.096;2023-03-05T12:49:45;1;1;
47741;PMS5003;33504;52.066;6.096;2023-03-05T12:52:16;1;1;
47741;PMS5003;33504;52.066;6.096;2023-03-05T12:55:00;1;1;
47741;PMS5003;33504;52.066;6.096;2023-03-05T12:57:41;2;2;
47741;PMS5003;33504;52.066;6.096;2023-03-05T13:00:13;1;1;
47741;PMS5003;33504;52.066;6.096;2023-03-05T13:02:44;1;0;
47741;PMS5003;33504;52.066;6.096;2023-03-05T13:05:15;1;1;
47741;PMS5003;33504;52.066;6.096;2023-03-05T13:07:47;0;0;
47741;PMS5003;33504;52.066;6.096;2023-03-05T13:10:20;0;0;
47741;PMS5003;33504;52.066;6.096;2023-03-05T13:12:52;1;1;
47741;PMS5003;33504;52.066;6.096;2023-03-05T13:15:21;0;0;
47741;PMS5003;33504;52.066;6.096;2023-03-05T13:17:50;0;0;
47741;PMS5003;33504;52.066;6.096;2023-03-05T13:20:23;0;0;
47741;PMS5003;33504;52.066;6.096;2023-03-05T13:23:04;0;0;
47741;PMS5003;33504;52.066;6.096;2023-03-05T13:25:41;0;0;
47741;PMS5003;33504;52.066;6.096;2023-03-05T13:28:10;1;1;
47741;PMS5003;33504;52.066;6.096;2023-03-05T13:30:41;1;1;
47741;PMS5003;33504;52.066;6.096;2023-03-05T13:33:16;1;1;
47741;PMS5003;33504;52.066;6.096;2023-03-05T13:35:48;1;1;
47741;PMS5003;33504;52.066;6.096;2023-03-05T13:38:20;0;0;
47741;PMS5003;33504;52.066;6.096;2023-03-05T13:41:06;2;2;
47741;PMS5003;33504;52.066;6.096;2023-03-05T13:43:44;2;2;
47741;PMS5003;33504;52.066;6.096;2023-03-05T13:46:21;2;2;
47741;PMS5003;33504;52.066;6.096;2023-03-05T13:48:50;2;2;
47741;PMS5003;33504;52.066;6.096;2023-03-05T13:51:17;4;3;
47741;PMS5003;33504;52.066;6.096;2023-03-05T13:53:43;2;2;
47741;PMS5003;33504;52.066;6.096;2023-03-05T13:56:12;3;2;
47741;PMS5003;33504;52.066;6.096;2023-03-05T13:58:43;12;10;
47741;PMS5003;33504;52.066;6.096;2023-03-05T14:01:14;4;4;
47741;PMS5003;33504;52.066;6.096;2023-03-05T14:03:49;1;1;
47741;PMS5003;33504;52.066;6.096;2023-03-05T14:06:18;2;2;
47741;PMS5003;33504;52.066;6.096;2023-03-05T14:08:48;2;2;
47741;PMS5003;33504;52.066;6.096;2023-03-05T14:11:16;2;2;
47741;PMS5003;33504;52.066;6.096;2023-03-05T14:13:44;2;2;
47741;PMS5003;33504;52.066;6.096;2023-03-05T14:16:14;22;20;
47741;PMS5003;33504;52.066;6.096;2023-03-05T14:18:51;18;17;
47741;PMS5003;33504;52.066;6.096;2023-03-05T14:21:19;2;2;
47741;PMS5003;33504;52.066;6.096;2023-03-05T14:23:47;5;5;
47741;PMS5003;33504;52.066;6.096;2023-03-05T14:26:18;3;3;
47741;PMS5003;33504;52.066;6.096;2023-03-05T14:28:50;1;1;
47741;PMS5003;33504;52.066;6.096;2023-03-05T14:31:19;2;2;
47741;PMS5003;33504;52.066;6.096;2023-03-05T14:33:47;2;2;
47741;PMS5003;33504;52.066;6.096;2023-03-05T14:36:19;3;2;
47741;PMS5003;33504;52.066;6.096;2023-03-05T14:38:48;3;3;
47741;PMS5003;33504;52.066;6.096;2023-03-05T14:41:18;1;1;
47741;PMS5003;33504;52.066;6.096;2023-03-05T14:43:47;1;1;
47741;PMS5003;33504;52.066;6.096;2023-03-05T14:46:14;2;2;
47741;PMS5003;33504;52.066;6.096;2023-03-05T14:48:41;2;2;
47741;PMS5003;33504;52.066;6.096;2023-03-05T14:51:08;4;4;
47741;PMS5003;33504;52.066;6.096;2023-03-05T14:53:37;5;4;
47741;PMS5003;33504;52.066;6.096;2023-03-05T14:56:10;2;2;
47741;PMS5003;33504;52.066;6.096;2023-03-05T14:58:47;1;1;
47741;PMS5003;33504;52.066;6.096;2023-03-05T15:01:14;0;0;
47741;PMS5003;33504;52.066;6.096;2023-03-05T15:03:41;2;2;
47741;PMS5003;33504;52.066;6.096;2023-03-05T15:06:12;1;1;
47741;PMS5003;33504;52.066;6.096;2023-03-05T15:08:45;1;1;
47741;PMS5003;33504;52.066;6.096;2023-03-05T15:11:13;2;2;
47741;PMS5003;33504;52.066;6.096;2023-03-05T15:13:40;6;6;
47741;PMS5003;33504;52.066;6.096;2023-03-05T15:16:10;2;2;
47741;PMS5003;33504;52.066;6.096;2023-03-05T15:18:40;6;3;
47741;PMS5003;33504;52.066;6.096;2023-03-05T15:21:07;2;2;
47741;PMS5003;33504;52.066;6.096;2023-03-05T15:23:35;5;4;
47741;PMS5003;33504;52.066;6.096;2023-03-05T15:26:02;3;3;
47741;PMS5003;33504;52.066;6.096;2023-03-05T15:28:32;1;1;
47741;PMS5003;33504;52.066;6.096;2023-03-05T15:28:34;1;1;
47741;PMS5003;33504;52.066;6.096;2023-03-05T15:31:03;4;4;
47741;PMS5003;33504;52.066;6.096;2023-03-05T15:33:32;5;5;
47741;PMS5003;33504;52.066;6.096;2023-03-05T15:36:00;5;4;
47741;PMS5003;33504;52.066;6.096;2023-03-05T15:38:27;9;9;
47741;PMS5003;33504;52.066;6.096;2023-03-05T15:40:55;64;63;
47741;PMS5003;33504;52.066;6.096;2023-03-05T15:43:21;32;31;
47741;PMS5003;33504;52.066;6.096;2023-03-05T15:45:49;22;20;
47741;PMS5003;33504;52.066;6.096;2023-03-05T15:48:16;12;11;
47741;PMS5003;33504;52.066;6.096;2023-03-05T15:50:43;12;11;
47741;PMS5003;33504;52.066;6.096;2023-03-05T15:53:11;15;14;
47741;PMS5003;33504;52.066;6.096;2023-03-05T15:55:39;12;12;
47741;PMS5003;33504;52.066;6.096;2023-03-05T15:58:07;15;14;
47741;PMS5003;33504;52.066;6.096;2023-03-05T16:00:38;19;18;
47741;PMS5003;33504;52.066;6.096;2023-03-05T16:03:05;12;11;
47741;PMS5003;33504;52.066;6.096;2023-03-05T16:05:33;4;4;
47741;PMS5003;33504;52.066;6.096;2023-03-05T16:08:00;5;5;
47741;PMS5003;33504;52.066;6.096;2023-03-05T16:10:28;10;10;
47741;PMS5003;33504;52.066;6.096;2023-03-05T16:12:56;10;10;
47741;PMS5003;33504;52.066;6.096;2023-03-05T16:15:27;13;13;
47741;PMS5003;33504;52.066;6.096;2023-03-05T16:17:56;17;16;
47741;PMS5003;33504;52.066;6.096;2023-03-05T16:20:26;15;13;
47741;PMS5003;33504;52.066;6.096;2023-03-05T16:22:53;22;21;
47741;PMS5003;33504;52.066;6.096;2023-03-05T16:25:20;24;24;
47741;PMS5003;33504;52.066;6.096;2023-03-05T16:27:47;20;20;
47741;PMS5003;33504;52.066;6.096;2023-03-05T16:30:14;15;15;
47741;PMS5003;33504;52.066;6.096;2023-03-05T16:32:42;20;20;
47741;PMS5003;33504;52.066;6.096;2023-03-05T16:35:09;40;32;
47741;PMS5003;33504;52.066;6.096;2023-03-05T16:37:36;54;45;
47741;PMS5003;33504;52.066;6.096;2023-03-05T16:40:05;27;26;
47741;PMS5003;33504;52.066;6.096;2023-03-05T16:42:34;28;26;
47741;PMS5003;33504;52.066;6.096;2023-03-05T16:45:03;31;28;
47741;PMS5003;33504;52.066;6.096;2023-03-05T16:47:31;28;23;
47741;PMS5003;33504;52.066;6.096;2023-03-05T16:49:58;25;25;
47741;PMS5003;33504;52.066;6.096;2023-03-05T16:52:25;34;31;
47741;PMS5003;33504;52.066;6.096;2023-03-05T16:54:53;30;29;
47741;PMS5003;33504;52.066;6.096;2023-03-05T16:57:20;20;20;
47741;PMS5003;33504;52.066;6.096;2023-03-05T16:59:47;13;13;